createdAt,value
2023-04-13T00:04:23.267Z,3.72
2023-04-13T00:09:31.461Z,1.80
2023-04-13T00:14:39.404Z,3.42
2023-04-13T00:19:43.540Z,3.85
2023-04-13T00:24:46.065Z,1.98
2023-04-13T00:29:49.570Z,2.50
2023-04-13T00:34:52.306Z,1.75
2023-04-13T00:39:54.270Z,1.60
2023-04-13T00:44:56.951Z,2.05
2023-04-13T00:50:06.825Z,1.90
2023-04-13T00:55:15.121Z,3.38
2023-04-13T01:00:22.548Z,3.17
2023-04-13T01:05:27.130Z,2.33
2023-04-13T01:10:50.779Z,3.55
2023-04-13T01:16:20.881Z,3.03
2023-04-13T01:21:28.844Z,3.45
2023-04-13T01:26:47.861Z,4.07
2023-04-13T01:31:55.049Z,4.15
2023-04-13T01:36:58.264Z,4.95
2023-04-13T01:42:01.565Z,4.38
2023-04-13T01:47:16.653Z,2.72
2023-04-13T01:52:41.648Z,8.15
2023-04-13T01:57:49.051Z,4.97
2023-04-13T02:02:57.229Z,3.30
2023-04-13T02:08:01.911Z,5.78
2023-04-13T02:13:10.181Z,4.60
2023-04-13T02:18:18.896Z,3.78
2023-04-13T02:23:21.707Z,2.25
2023-04-13T02:28:24.237Z,6.32
2023-04-13T02:33:38.582Z,5.90
2023-04-13T02:38:40.968Z,4.35
2023-04-13T02:43:53.073Z,4.63
2023-04-13T02:48:58.651Z,4.93
2023-04-13T02:54:09.877Z,3.92
2023-04-13T03:04:18.392Z,4.38
2023-04-13T03:09:23.146Z,5.88
2023-04-13T03:14:30.390Z,8.20
2023-04-13T03:19:41.998Z,4.60
2023-04-13T03:24:45.486Z,5.20
2023-04-13T03:29:58.923Z,6.82
2023-04-13T03:41:14.541Z,4.07
2023-04-13T03:46:23.373Z,6.13
2023-04-13T03:51:28.265Z,3.67
2023-04-13T03:56:32.305Z,5.32
2023-04-13T04:01:39.835Z,8.25
2023-04-13T04:06:47.624Z,5.28
2023-04-13T04:11:57.047Z,5.93
2023-04-13T04:17:15.182Z,6.07
2023-04-13T04:22:24.742Z,5.72
2023-04-13T04:27:28.190Z,7.05
2023-04-13T04:32:37.543Z,5.90
2023-04-13T04:37:49.841Z,8.95
2023-04-13T04:42:54.894Z,5.63
2023-04-13T04:48:06.196Z,4.72
2023-04-13T04:53:10.021Z,3.17
2023-04-13T04:58:12.619Z,6.78
2023-04-13T05:03:23.394Z,5.60
2023-04-13T05:08:36.931Z,10.15
2023-04-13T05:13:41.340Z,5.43
2023-04-13T05:18:59.717Z,3.42
2023-04-13T05:24:22.875Z,3.83
2023-04-13T05:29:26.729Z,5.72
2023-04-13T05:34:29.421Z,4.88
2023-04-13T05:39:42.268Z,5.55
2023-04-13T05:44:46.006Z,3.45
2023-04-13T05:49:52.551Z,6.93
2023-04-13T05:54:58.075Z,6.85
2023-04-13T06:00:00.091Z,4.82
2023-04-13T06:05:15.948Z,5.82
2023-04-13T06:10:19.601Z,4.13
2023-04-13T06:15:21.699Z,5.93
2023-04-13T06:20:23.636Z,8.57
2023-04-13T06:25:25.558Z,9.07
2023-04-13T06:30:27.324Z,7.22
2023-04-13T06:35:33.234Z,7.72
2023-04-13T06:40:35.433Z,6.35
2023-04-13T06:45:40.593Z,4.70
2023-04-13T06:50:46.761Z,5.28
2023-04-13T06:55:48.553Z,6.30
2023-04-13T07:00:51.012Z,4.80
2023-04-13T07:05:52.813Z,6.10
2023-04-13T07:10:55.288Z,5.75
2023-04-13T07:16:05.448Z,10.45
2023-04-13T07:21:10.355Z,10.32
2023-04-13T07:26:27.559Z,12.02
2023-04-13T07:31:30.769Z,12.80
2023-04-13T07:36:32.780Z,7.30
2023-04-13T07:41:40.798Z,10.75
2023-04-13T07:46:47.904Z,8.30
2023-04-13T07:51:53.220Z,10.52
2023-04-13T07:56:56.721Z,14.85
2023-04-13T08:02:02.025Z,11.25
2023-04-13T08:07:07.322Z,10.88
2023-04-13T08:12:09.535Z,13.23
2023-04-13T08:17:15.353Z,13.95
2023-04-13T08:22:17.493Z,10.27
2023-04-13T08:27:19.821Z,9.30
2023-04-13T08:32:21.614Z,11.47
2023-04-13T08:37:28.153Z,10.30
2023-04-13T08:42:30.658Z,13.40
2023-04-13T08:47:33.677Z,12.82
2023-04-13T08:52:37.317Z,12.60
2023-04-13T08:57:41.164Z,12.25
2023-04-13T09:03:00.553Z,11.07
2023-04-13T09:08:08.106Z,11.90
2023-04-13T09:13:12.813Z,13.88
2023-04-13T09:18:16.116Z,11.73
2023-04-13T09:23:24.506Z,11.50
2023-04-13T09:28:26.640Z,10.90
2023-04-13T09:33:28.669Z,6.97
2023-04-13T09:38:31.323Z,8.32
2023-04-13T09:43:40.314Z,13.70
2023-04-13T09:48:42.100Z,8.57
2023-04-13T09:53:47.491Z,10.75
2023-04-13T09:58:50.463Z,16.52
2023-04-13T10:03:52.769Z,11.23
2023-04-13T10:08:54.555Z,11.13
2023-04-13T10:14:00.091Z,14.23
2023-04-13T10:19:29.527Z,8.75
2023-04-13T10:24:31.794Z,12.15
2023-04-13T10:29:35.411Z,9.40
2023-04-13T10:34:39.558Z,12.32
2023-04-13T10:39:41.219Z,11.45
2023-04-13T10:44:51.514Z,9.50
2023-04-13T10:49:53.257Z,14.23
2023-04-13T10:54:55.446Z,16.33
2023-04-13T10:59:59.329Z,10.73
2023-04-13T11:05:02.257Z,10.00
2023-04-13T11:10:05.974Z,12.18
2023-04-13T11:15:08.635Z,7.40
2023-04-13T11:20:11.383Z,10.73
2023-04-13T11:25:13.263Z,10.48
2023-04-13T11:30:15.562Z,8.45
2023-04-13T11:35:18.659Z,8.13
2023-04-13T11:40:27.414Z,10.95
2023-04-13T11:45:30.515Z,12.07
2023-04-13T11:50:32.779Z,11.55
2023-04-13T11:55:52.186Z,8.48
2023-04-13T12:00:58.330Z,7.93
2023-04-13T12:06:05.864Z,11.93
2023-04-13T12:11:38.979Z,11.18
2023-04-13T12:21:39.990Z,8.23
2023-04-13T12:27:16.978Z,8.38
2023-04-13T12:32:15.793Z,12.40
2023-04-13T12:37:17.625Z,11.65
2023-04-13T12:42:19.246Z,14.10
2023-04-13T12:47:21.070Z,13.13
2023-04-13T12:52:22.862Z,10.13
2023-04-13T12:57:28.542Z,14.57
2023-04-13T13:02:31.136Z,9.63
2023-04-13T13:07:32.989Z,10.05
2023-04-13T13:12:34.961Z,11.05
2023-04-13T13:17:40.546Z,10.43
2023-04-13T13:22:42.405Z,13.30
2023-04-13T13:32:48.758Z,13.15
2023-04-13T13:37:50.820Z,10.20
2023-04-13T13:42:52.942Z,16.75
2023-04-13T13:47:55.085Z,10.85
2023-04-13T13:53:20.700Z,13.85
2023-04-13T13:58:22.652Z,13.07
2023-04-13T14:03:24.604Z,15.32
2023-04-13T14:08:26.274Z,8.05
2023-04-13T14:13:27.933Z,15.43
2023-04-13T14:18:29.624Z,12.77
2023-04-13T14:23:32.091Z,13.98
2023-04-13T14:28:34.053Z,9.93
2023-04-13T14:33:37.668Z,8.75
2023-04-13T14:38:39.278Z,9.73
2023-04-13T14:43:40.958Z,11.18
2023-04-13T14:48:42.570Z,7.97
2023-04-13T14:53:44.484Z,12.05
2023-04-13T14:58:46.448Z,11.98
2023-04-13T15:03:48.994Z,14.93
2023-04-13T15:08:51.044Z,13.73
2023-04-13T15:13:52.630Z,9.13
2023-04-13T15:18:54.263Z,13.65
2023-04-13T15:23:55.854Z,11.93
2023-04-13T15:28:57.901Z,17.77
2023-04-13T15:33:59.694Z,11.43
2023-04-13T15:39:02.014Z,14.13
2023-04-13T15:44:05.710Z,11.80
2023-04-13T15:49:07.300Z,12.70
2023-04-13T15:54:08.981Z,14.23
2023-04-13T15:59:10.846Z,17.17
2023-04-13T16:04:12.686Z,14.65
2023-04-13T16:09:14.507Z,14.65
2023-04-13T16:14:17.402Z,11.32
2023-04-13T16:19:19.685Z,18.35
2023-04-13T16:24:21.414Z,15.57
2023-04-13T16:29:24.808Z,9.38
2023-04-13T16:34:27.976Z,9.45
2023-04-13T16:39:29.572Z,12.63
2023-04-13T16:44:31.232Z,11.48
2023-04-13T16:49:34.674Z,15.45
2023-04-13T16:54:37.231Z,13.63
2023-04-13T16:59:39.096Z,10.38
2023-04-13T17:04:40.876Z,14.00
2023-04-13T17:09:42.774Z,11.43
2023-04-13T17:14:45.516Z,12.68
2023-04-13T17:19:47.187Z,11.38
2023-04-13T17:24:49.203Z,12.15
2023-04-13T17:29:50.969Z,12.48
2023-04-13T17:34:52.852Z,14.70
2023-04-13T17:39:54.523Z,14.23
2023-04-13T17:44:56.658Z,12.52
2023-04-13T17:49:59.663Z,19.77
2023-04-13T17:55:01.389Z,11.95
2023-04-13T18:00:06.382Z,12.98
2023-04-13T18:05:15.172Z,15.40
2023-04-13T18:10:17.247Z,12.55
2023-04-13T18:15:18.930Z,16.55
2023-04-13T18:20:20.900Z,17.02
2023-04-13T18:25:22.553Z,14.70
2023-04-13T18:30:24.231Z,11.65
2023-04-13T18:35:25.950Z,10.23
2023-04-13T18:40:27.620Z,11.52
2023-04-13T18:45:29.297Z,14.07
2023-04-13T18:50:31.028Z,10.98
2023-04-13T18:55:33.205Z,12.50
2023-04-13T19:00:39.377Z,13.30
2023-04-13T19:05:41.028Z,16.17
2023-04-13T19:10:42.902Z,17.23
2023-04-13T19:15:44.559Z,9.50
2023-04-13T19:20:46.259Z,15.38
2023-04-13T19:25:47.940Z,15.27
2023-04-13T19:30:49.681Z,11.48
2023-04-13T19:35:52.485Z,9.68
2023-04-13T19:40:54.535Z,12.43
2023-04-13T19:45:56.272Z,14.25
2023-04-13T19:50:57.920Z,12.77
2023-04-13T19:55:59.614Z,12.88
2023-04-13T20:01:02.103Z,11.05
2023-04-13T20:06:06.576Z,10.13
2023-04-13T20:11:08.204Z,11.05
2023-04-13T20:16:10.754Z,11.20
2023-04-13T20:21:12.656Z,12.50
2023-04-13T20:26:14.393Z,12.00
2023-04-13T20:31:16.560Z,7.25
2023-04-13T20:36:21.191Z,9.43
2023-04-13T20:41:24.523Z,6.43
2023-04-13T20:46:33.844Z,8.18
2023-04-13T20:51:39.713Z,7.82
2023-04-13T20:56:42.271Z,5.70
2023-04-13T21:01:44.194Z,7.28
2023-04-13T21:06:46.769Z,6.47
2023-04-13T21:11:49.499Z,6.03
2023-04-13T21:16:52.496Z,7.50
2023-04-13T21:21:55.714Z,5.82
2023-04-13T21:26:58.714Z,5.50
2023-04-13T21:32:01.536Z,7.88
2023-04-13T21:37:03.394Z,6.10
2023-04-13T21:42:09.034Z,8.13
2023-04-13T21:47:10.646Z,8.40
2023-04-13T21:52:12.274Z,5.65
2023-04-13T21:57:13.885Z,4.47
2023-04-13T22:02:16.665Z,6.85
2023-04-13T22:07:20.432Z,11.75
2023-04-13T22:12:29.820Z,7.07
2023-04-13T22:17:32.087Z,8.13
2023-04-13T22:22:33.798Z,7.63
2023-04-13T22:27:38.932Z,9.23
2023-04-13T22:32:41.991Z,11.48
2023-04-13T22:37:43.707Z,8.82
2023-04-13T22:42:45.429Z,6.97
2023-04-13T22:47:47.046Z,11.30
2023-04-13T22:52:48.755Z,11.60
2023-04-13T22:57:50.666Z,9.32
2023-04-13T23:02:56.044Z,11.60
2023-04-13T23:07:57.907Z,12.43
2023-04-13T23:12:59.521Z,8.50
2023-04-13T23:18:02.737Z,7.53
2023-04-13T23:23:05.515Z,6.97
2023-04-13T23:28:07.408Z,4.78
2023-04-13T23:33:09.353Z,7.28
2023-04-13T23:38:11.191Z,8.32
2023-04-13T23:43:12.775Z,7.88
2023-04-13T23:48:14.424Z,6.38
2023-04-13T23:53:16.691Z,7.65
2023-04-13T23:58:18.351Z,9.60
